sensor_id;sensor_type;location;lat;lon;timestamp;P1;durP1;ratioP1;P2;durP2;ratioP2
11535;SDS011;5824;49.336;8.652;2023-04-03T00:01:27;3.73;;;2.43;;
11535;SDS011;5824;49.336;8.652;2023-04-03T00:03:53;2.90;;;2.27;;
11535;SDS011;5824;49.336;8.652;2023-04-03T00:06:19;6.53;;;2.93;;
11535;SDS011;5824;49.336;8.652;2023-04-03T00:08:45;4.00;;;2.50;;
11535;SDS011;5824;49.336;8.652;2023-04-03T00:11:11;3.20;;;2.90;;
11535;SDS011;5824;49.336;8.652;2023-04-03T00:13:37;4.20;;;2.60;;
11535;SDS011;5824;49.336;8.652;2023-04-03T00:16:04;3.40;;;3.03;;
11535;SDS011;5824;49.336;8.652;2023-04-03T00:18:30;3.70;;;2.70;;
11535;SDS011;5824;49.336;8.652;2023-04-03T00:20:56;3.23;;;2.30;;
11535;SDS011;5824;49.336;8.652;2023-04-03T00:23:22;2.93;;;2.23;;
11535;SDS011;5824;49.336;8.652;2023-04-03T00:25:48;2.57;;;2.10;;
11535;SDS011;5824;49.336;8.652;2023-04-03T00:28:14;3.90;;;2.40;;
11535;SDS011;5824;49.336;8.652;2023-04-03T00:30:40;2.60;;;2.10;;
11535;SDS011;5824;49.336;8.652;2023-04-03T00:33:05;4.47;;;2.80;;
11535;SDS011;5824;49.336;8.652;2023-04-03T00:35:31;4.50;;;2.30;;
11535;SDS011;5824;49.336;8.652;2023-04-03T00:37:58;2.50;;;2.30;;
11535;SDS011;5824;49.336;8.652;2023-04-03T00:40:25;3.90;;;2.60;;
11535;SDS011;5824;49.336;8.652;2023-04-03T00:42:54;2.50;;;2.13;;
11535;SDS011;5824;49.336;8.652;2023-04-03T00:45:23;3.73;;;2.37;;
11535;SDS011;5824;49.336;8.652;2023-04-03T00:47:52;5.00;;;2.40;;
11535;SDS011;5824;49.336;8.652;2023-04-03T00:50:17;5.27;;;2.43;;
11535;SDS011;5824;49.336;8.652;2023-04-03T00:52:43;2.90;;;2.23;;
11535;SDS011;5824;49.336;8.652;2023-04-03T00:55:11;3.67;;;2.30;;
11535;SDS011;5824;49.336;8.652;2023-04-03T00:57:39;3.20;;;2.40;;
11535;SDS011;5824;49.336;8.652;2023-04-03T01:00:07;2.60;;;2.07;;
11535;SDS011;5824;49.336;8.652;2023-04-03T01:02:35;3.00;;;2.40;;
11535;SDS011;5824;49.336;8.652;2023-04-03T01:05:01;5.33;;;2.37;;
11535;SDS011;5824;49.336;8.652;2023-04-03T01:07:28;2.50;;;2.00;;
11535;SDS011;5824;49.336;8.652;2023-04-03T01:09:59;2.30;;;2.10;;
11535;SDS011;5824;49.336;8.652;2023-04-03T01:12:27;4.00;;;2.20;;
11535;SDS011;5824;49.336;8.652;2023-04-03T01:14:56;3.17;;;2.40;;
11535;SDS011;5824;49.336;8.652;2023-04-03T01:19:57;2.90;;;2.20;;
11535;SDS011;5824;49.336;8.652;2023-04-03T01:22:48;3.67;;;2.33;;
11535;SDS011;5824;49.336;8.652;2023-04-03T01:28:10;4.77;;;2.60;;
11535;SDS011;5824;49.336;8.652;2023-04-03T01:30:40;3.70;;;2.33;;
11535;SDS011;5824;49.336;8.652;2023-04-03T01:33:12;4.07;;;2.67;;
11535;SDS011;5824;49.336;8.652;2023-04-03T01:35:38;3.00;;;2.20;;
11535;SDS011;5824;49.336;8.652;2023-04-03T01:38:04;3.00;;;2.57;;
11535;SDS011;5824;49.336;8.652;2023-04-03T01:40:29;2.50;;;2.00;;
11535;SDS011;5824;49.336;8.652;2023-04-03T01:42:55;4.00;;;2.30;;
11535;SDS011;5824;49.336;8.652;2023-04-03T01:45:20;7.70;;;2.33;;
11535;SDS011;5824;49.336;8.652;2023-04-03T01:47:47;4.80;;;2.73;;
11535;SDS011;5824;49.336;8.652;2023-04-03T01:50:13;3.77;;;2.17;;
11535;SDS011;5824;49.336;8.652;2023-04-03T01:52:38;2.27;;;2.00;;
11535;SDS011;5824;49.336;8.652;2023-04-03T01:55:04;3.23;;;2.20;;
11535;SDS011;5824;49.336;8.652;2023-04-03T01:57:30;5.43;;;1.87;;
11535;SDS011;5824;49.336;8.652;2023-04-03T01:59:56;3.10;;;2.03;;
11535;SDS011;5824;49.336;8.652;2023-04-03T02:02:21;4.50;;;2.30;;
11535;SDS011;5824;49.336;8.652;2023-04-03T02:04:47;4.03;;;2.20;;
11535;SDS011;5824;49.336;8.652;2023-04-03T02:07:12;3.23;;;2.30;;
11535;SDS011;5824;49.336;8.652;2023-04-03T02:09:38;2.53;;;2.20;;
11535;SDS011;5824;49.336;8.652;2023-04-03T02:12:03;3.77;;;2.30;;
11535;SDS011;5824;49.336;8.652;2023-04-03T02:14:29;3.97;;;2.57;;
11535;SDS011;5824;49.336;8.652;2023-04-03T02:16:54;3.10;;;2.20;;
11535;SDS011;5824;49.336;8.652;2023-04-03T02:19:20;3.67;;;2.60;;
11535;SDS011;5824;49.336;8.652;2023-04-03T02:21:45;2.57;;;2.00;;
11535;SDS011;5824;49.336;8.652;2023-04-03T02:24:11;2.43;;;1.90;;
11535;SDS011;5824;49.336;8.652;2023-04-03T02:26:36;4.00;;;2.40;;
11535;SDS011;5824;49.336;8.652;2023-04-03T02:29:02;2.60;;;2.20;;
11535;SDS011;5824;49.336;8.652;2023-04-03T02:31:28;5.10;;;2.37;;
11535;SDS011;5824;49.336;8.652;2023-04-03T02:33:53;2.33;;;2.13;;
11535;SDS011;5824;49.336;8.652;2023-04-03T02:36:19;1.90;;;1.80;;
11535;SDS011;5824;49.336;8.652;2023-04-03T02:38:44;2.80;;;2.00;;
11535;SDS011;5824;49.336;8.652;2023-04-03T02:41:11;3.00;;;2.37;;
11535;SDS011;5824;49.336;8.652;2023-04-03T02:43:37;5.10;;;2.53;;
11535;SDS011;5824;49.336;8.652;2023-04-03T02:46:03;3.30;;;2.10;;
11535;SDS011;5824;49.336;8.652;2023-04-03T02:48:29;4.53;;;2.10;;
11535;SDS011;5824;49.336;8.652;2023-04-03T02:50:54;3.33;;;2.00;;
11535;SDS011;5824;49.336;8.652;2023-04-03T02:53:20;4.53;;;2.10;;
11535;SDS011;5824;49.336;8.652;2023-04-03T02:55:46;2.20;;;2.00;;
11535;SDS011;5824;49.336;8.652;2023-04-03T02:58:12;2.70;;;2.40;;
11535;SDS011;5824;49.336;8.652;2023-04-03T03:00:37;3.70;;;3.20;;
11535;SDS011;5824;49.336;8.652;2023-04-03T03:03:03;4.23;;;2.40;;
11535;SDS011;5824;49.336;8.652;2023-04-03T03:05:28;4.80;;;1.70;;
11535;SDS011;5824;49.336;8.652;2023-04-03T03:07:54;3.50;;;2.03;;
11535;SDS011;5824;49.336;8.652;2023-04-03T03:10:20;3.43;;;2.17;;
11535;SDS011;5824;49.336;8.652;2023-04-03T03:12:46;3.77;;;2.23;;
11535;SDS011;5824;49.336;8.652;2023-04-03T03:15:12;3.13;;;2.20;;
11535;SDS011;5824;49.336;8.652;2023-04-03T03:17:37;2.00;;;1.90;;
11535;SDS011;5824;49.336;8.652;2023-04-03T03:20:04;2.30;;;1.93;;
11535;SDS011;5824;49.336;8.652;2023-04-03T03:22:30;3.37;;;2.00;;
11535;SDS011;5824;49.336;8.652;2023-04-03T03:24:56;2.27;;;1.97;;
11535;SDS011;5824;49.336;8.652;2023-04-03T03:27:21;3.63;;;2.13;;
11535;SDS011;5824;49.336;8.652;2023-04-03T03:29:47;3.80;;;2.47;;
11535;SDS011;5824;49.336;8.652;2023-04-03T03:32:12;2.77;;;1.80;;
11535;SDS011;5824;49.336;8.652;2023-04-03T03:34:38;2.33;;;1.93;;
11535;SDS011;5824;49.336;8.652;2023-04-03T03:37:03;10.53;;;2.37;;
11535;SDS011;5824;49.336;8.652;2023-04-03T03:39:29;3.43;;;2.33;;
11535;SDS011;5824;49.336;8.652;2023-04-03T03:41:55;3.90;;;3.07;;
11535;SDS011;5824;49.336;8.652;2023-04-03T03:44:20;3.57;;;2.60;;
11535;SDS011;5824;49.336;8.652;2023-04-03T03:46:46;3.30;;;2.43;;
11535;SDS011;5824;49.336;8.652;2023-04-03T03:49:12;2.43;;;2.17;;
11535;SDS011;5824;49.336;8.652;2023-04-03T03:51:38;2.60;;;2.20;;
11535;SDS011;5824;49.336;8.652;2023-04-03T03:54:03;2.80;;;2.23;;
11535;SDS011;5824;49.336;8.652;2023-04-03T03:56:30;2.67;;;2.30;;
11535;SDS011;5824;49.336;8.652;2023-04-03T03:58:55;4.10;;;2.77;;
11535;SDS011;5824;49.336;8.652;2023-04-03T04:01:22;4.37;;;2.73;;
11535;SDS011;5824;49.336;8.652;2023-04-03T04:03:48;4.67;;;2.47;;
11535;SDS011;5824;49.336;8.652;2023-04-03T04:06:14;3.60;;;2.17;;
11535;SDS011;5824;49.336;8.652;2023-04-03T04:08:40;2.97;;;2.67;;
11535;SDS011;5824;49.336;8.652;2023-04-03T04:11:06;3.70;;;2.67;;
11535;SDS011;5824;49.336;8.652;2023-04-03T04:13:32;3.93;;;2.57;;
11535;SDS011;5824;49.336;8.652;2023-04-03T04:15:58;3.30;;;2.13;;
11535;SDS011;5824;49.336;8.652;2023-04-03T04:18:23;5.10;;;2.27;;
11535;SDS011;5824;49.336;8.652;2023-04-03T04:20:49;2.97;;;2.60;;
11535;SDS011;5824;49.336;8.652;2023-04-03T04:23:15;2.40;;;2.10;;
11535;SDS011;5824;49.336;8.652;2023-04-03T04:25:44;3.40;;;2.50;;
11535;SDS011;5824;49.336;8.652;2023-04-03T04:28:10;3.30;;;2.30;;
11535;SDS011;5824;49.336;8.652;2023-04-03T04:30:36;2.80;;;2.20;;
11535;SDS011;5824;49.336;8.652;2023-04-03T04:33:01;3.33;;;2.50;;
11535;SDS011;5824;49.336;8.652;2023-04-03T04:35:27;7.20;;;2.33;;
11535;SDS011;5824;49.336;8.652;2023-04-03T04:37:53;2.63;;;2.43;;
11535;SDS011;5824;49.336;8.652;2023-04-03T04:40:18;5.80;;;3.10;;
11535;SDS011;5824;49.336;8.652;2023-04-03T04:42:44;2.77;;;2.53;;
11535;SDS011;5824;49.336;8.652;2023-04-03T04:45:09;4.67;;;2.50;;
11535;SDS011;5824;49.336;8.652;2023-04-03T04:47:35;4.90;;;2.97;;
11535;SDS011;5824;49.336;8.652;2023-04-03T04:50:01;3.90;;;2.80;;
11535;SDS011;5824;49.336;8.652;2023-04-03T04:52:26;3.17;;;2.43;;
11535;SDS011;5824;49.336;8.652;2023-04-03T04:54:52;2.93;;;2.50;;
11535;SDS011;5824;49.336;8.652;2023-04-03T04:57:17;6.77;;;3.37;;
11535;SDS011;5824;49.336;8.652;2023-04-03T04:59:43;4.77;;;3.20;;
11535;SDS011;5824;49.336;8.652;2023-04-03T05:02:08;2.70;;;2.40;;
11535;SDS011;5824;49.336;8.652;2023-04-03T05:04:34;2.83;;;2.40;;
11535;SDS011;5824;49.336;8.652;2023-04-03T05:06:59;4.20;;;2.50;;
11535;SDS011;5824;49.336;8.652;2023-04-03T05:09:25;6.40;;;2.40;;
11535;SDS011;5824;49.336;8.652;2023-04-03T05:11:50;3.90;;;2.60;;
11535;SDS011;5824;49.336;8.652;2023-04-03T05:14:16;5.83;;;2.90;;
11535;SDS011;5824;49.336;8.652;2023-04-03T05:16:42;3.80;;;2.73;;
11535;SDS011;5824;49.336;8.652;2023-04-03T05:19:07;2.97;;;2.67;;
11535;SDS011;5824;49.336;8.652;2023-04-03T05:21:33;3.43;;;2.53;;
11535;SDS011;5824;49.336;8.652;2023-04-03T05:23:59;3.53;;;2.50;;
11535;SDS011;5824;49.336;8.652;2023-04-03T05:26:27;7.13;;;2.80;;
11535;SDS011;5824;49.336;8.652;2023-04-03T05:28:56;3.03;;;2.47;;
11535;SDS011;5824;49.336;8.652;2023-04-03T05:31:21;6.37;;;2.63;;
11535;SDS011;5824;49.336;8.652;2023-04-03T05:33:47;3.10;;;2.80;;
11535;SDS011;5824;49.336;8.652;2023-04-03T05:36:13;3.23;;;2.70;;
11535;SDS011;5824;49.336;8.652;2023-04-03T05:38:38;4.83;;;2.90;;
11535;SDS011;5824;49.336;8.652;2023-04-03T05:41:04;3.43;;;2.90;;
11535;SDS011;5824;49.336;8.652;2023-04-03T05:43:30;4.13;;;2.60;;
11535;SDS011;5824;49.336;8.652;2023-04-03T05:45:56;3.83;;;2.70;;
11535;SDS011;5824;49.336;8.652;2023-04-03T05:48:22;3.20;;;2.80;;
11535;SDS011;5824;49.336;8.652;2023-04-03T05:50:47;3.60;;;2.77;;
11535;SDS011;5824;49.336;8.652;2023-04-03T05:53:21;6.97;;;3.20;;
11535;SDS011;5824;49.336;8.652;2023-04-03T05:55:52;6.90;;;3.10;;
11535;SDS011;5824;49.336;8.652;2023-04-03T05:58:18;4.60;;;3.77;;
11535;SDS011;5824;49.336;8.652;2023-04-03T06:00:44;4.73;;;3.33;;
11535;SDS011;5824;49.336;8.652;2023-04-03T06:03:10;12.90;;;3.60;;
11535;SDS011;5824;49.336;8.652;2023-04-03T06:05:36;5.20;;;3.60;;
11535;SDS011;5824;49.336;8.652;2023-04-03T06:08:01;4.20;;;3.10;;
11535;SDS011;5824;49.336;8.652;2023-04-03T06:10:28;3.50;;;3.20;;
11535;SDS011;5824;49.336;8.652;2023-04-03T06:12:53;8.87;;;3.93;;
11535;SDS011;5824;49.336;8.652;2023-04-03T06:15:19;4.00;;;3.50;;
11535;SDS011;5824;49.336;8.652;2023-04-03T06:17:45;8.53;;;4.07;;
11535;SDS011;5824;49.336;8.652;2023-04-03T06:20:11;5.30;;;3.57;;
11535;SDS011;5824;49.336;8.652;2023-04-03T06:22:37;7.70;;;4.20;;
11535;SDS011;5824;49.336;8.652;2023-04-03T06:25:02;12.10;;;4.43;;
11535;SDS011;5824;49.336;8.652;2023-04-03T06:27:29;12.60;;;4.93;;
11535;SDS011;5824;49.336;8.652;2023-04-03T06:29:55;6.60;;;3.60;;
11535;SDS011;5824;49.336;8.652;2023-04-03T06:32:21;6.97;;;4.40;;
11535;SDS011;5824;49.336;8.652;2023-04-03T06:34:46;7.77;;;3.93;;
11535;SDS011;5824;49.336;8.652;2023-04-03T06:37:15;7.27;;;3.83;;
11535;SDS011;5824;49.336;8.652;2023-04-03T06:39:43;6.07;;;3.13;;
11535;SDS011;5824;49.336;8.652;2023-04-03T06:42:08;5.00;;;3.57;;
11535;SDS011;5824;49.336;8.652;2023-04-03T06:44:34;5.47;;;4.10;;
11535;SDS011;5824;49.336;8.652;2023-04-03T06:47:00;5.23;;;3.80;;
11535;SDS011;5824;49.336;8.652;2023-04-03T06:49:26;6.03;;;3.10;;
11535;SDS011;5824;49.336;8.652;2023-04-03T06:51:51;5.03;;;3.47;;
11535;SDS011;5824;49.336;8.652;2023-04-03T06:54:17;5.00;;;3.63;;
11535;SDS011;5824;49.336;8.652;2023-04-03T06:56:43;3.97;;;3.17;;
11535;SDS011;5824;49.336;8.652;2023-04-03T06:59:09;5.77;;;3.33;;
11535;SDS011;5824;49.336;8.652;2023-04-03T07:01:35;4.50;;;3.10;;
11535;SDS011;5824;49.336;8.652;2023-04-03T07:04:01;5.87;;;2.67;;
11535;SDS011;5824;49.336;8.652;2023-04-03T07:06:26;3.80;;;3.10;;
11535;SDS011;5824;49.336;8.652;2023-04-03T07:08:52;3.63;;;2.90;;
11535;SDS011;5824;49.336;8.652;2023-04-03T07:11:18;5.40;;;2.70;;
11535;SDS011;5824;49.336;8.652;2023-04-03T07:13:43;7.87;;;2.87;;
11535;SDS011;5824;49.336;8.652;2023-04-03T07:16:09;6.37;;;2.80;;
11535;SDS011;5824;49.336;8.652;2023-04-03T07:18:35;4.17;;;3.20;;
11535;SDS011;5824;49.336;8.652;2023-04-03T07:21:01;6.20;;;2.80;;
11535;SDS011;5824;49.336;8.652;2023-04-03T07:23:27;4.00;;;2.70;;
11535;SDS011;5824;49.336;8.652;2023-04-03T07:25:53;4.00;;;2.60;;
11535;SDS011;5824;49.336;8.652;2023-04-03T07:28:20;7.80;;;2.67;;
11535;SDS011;5824;49.336;8.652;2023-04-03T07:30:51;6.13;;;2.77;;
11535;SDS011;5824;49.336;8.652;2023-04-03T07:33:18;4.10;;;2.63;;
11535;SDS011;5824;49.336;8.652;2023-04-03T07:35:45;4.20;;;2.77;;
11535;SDS011;5824;49.336;8.652;2023-04-03T07:38:11;5.53;;;3.23;;
11535;SDS011;5824;49.336;8.652;2023-04-03T07:40:37;5.20;;;3.97;;
11535;SDS011;5824;49.336;8.652;2023-04-03T07:43:03;5.87;;;3.80;;
11535;SDS011;5824;49.336;8.652;2023-04-03T07:45:30;9.13;;;3.73;;
11535;SDS011;5824;49.336;8.652;2023-04-03T07:47:56;6.40;;;3.47;;
11535;SDS011;5824;49.336;8.652;2023-04-03T07:50:21;6.27;;;3.33;;
11535;SDS011;5824;49.336;8.652;2023-04-03T07:52:47;4.90;;;2.70;;
11535;SDS011;5824;49.336;8.652;2023-04-03T07:55:13;20.87;;;3.80;;
11535;SDS011;5824;49.336;8.652;2023-04-03T07:57:39;14.60;;;5.03;;
11535;SDS011;5824;49.336;8.652;2023-04-03T08:00:05;6.03;;;3.63;;
11535;SDS011;5824;49.336;8.652;2023-04-03T08:02:31;7.30;;;3.33;;
11535;SDS011;5824;49.336;8.652;2023-04-03T08:05:00;6.00;;;3.60;;
11535;SDS011;5824;49.336;8.652;2023-04-03T08:07:25;5.17;;;3.13;;
11535;SDS011;5824;49.336;8.652;2023-04-03T08:09:51;5.63;;;2.80;;
11535;SDS011;5824;49.336;8.652;2023-04-03T08:12:17;4.73;;;2.70;;
11535;SDS011;5824;49.336;8.652;2023-04-03T08:14:43;6.63;;;3.20;;
11535;SDS011;5824;49.336;8.652;2023-04-03T08:17:08;7.07;;;2.60;;
11535;SDS011;5824;49.336;8.652;2023-04-03T08:19:37;4.50;;;2.60;;
11535;SDS011;5824;49.336;8.652;2023-04-03T08:22:03;6.20;;;2.87;;
11535;SDS011;5824;49.336;8.652;2023-04-03T08:24:30;5.00;;;2.50;;
11535;SDS011;5824;49.336;8.652;2023-04-03T08:26:56;6.63;;;2.87;;
11535;SDS011;5824;49.336;8.652;2023-04-03T08:29:21;7.80;;;2.70;;
11535;SDS011;5824;49.336;8.652;2023-04-03T08:31:47;4.50;;;2.20;;
11535;SDS011;5824;49.336;8.652;2023-04-03T08:34:14;3.30;;;2.23;;
11535;SDS011;5824;49.336;8.652;2023-04-03T08:36:40;5.97;;;2.70;;
11535;SDS011;5824;49.336;8.652;2023-04-03T08:39:06;3.43;;;2.40;;
11535;SDS011;5824;49.336;8.652;2023-04-03T08:41:33;4.00;;;2.57;;
11535;SDS011;5824;49.336;8.652;2023-04-03T08:46:51;4.03;;;2.03;;
11535;SDS011;5824;49.336;8.652;2023-04-03T08:49:26;3.47;;;2.00;;
11535;SDS011;5824;49.336;8.652;2023-04-03T08:51:58;5.00;;;2.30;;
11535;SDS011;5824;49.336;8.652;2023-04-03T08:54:29;4.40;;;2.40;;
11535;SDS011;5824;49.336;8.652;2023-04-03T08:56:58;3.57;;;2.13;;
11535;SDS011;5824;49.336;8.652;2023-04-03T08:59:28;3.47;;;2.20;;
11535;SDS011;5824;49.336;8.652;2023-04-03T09:01:57;4.63;;;2.57;;
11535;SDS011;5824;49.336;8.652;2023-04-03T09:04:27;4.50;;;2.40;;
11535;SDS011;5824;49.336;8.652;2023-04-03T09:06:58;4.53;;;2.50;;
11535;SDS011;5824;49.336;8.652;2023-04-03T09:09:39;3.87;;;2.07;;
11535;SDS011;5824;49.336;8.652;2023-04-03T09:14:46;3.30;;;2.20;;
11535;SDS011;5824;49.336;8.652;2023-04-03T09:17:37;5.13;;;2.87;;
11535;SDS011;5824;49.336;8.652;2023-04-03T09:20:49;3.90;;;2.10;;
11535;SDS011;5824;49.336;8.652;2023-04-03T09:23:18;4.10;;;2.00;;
11535;SDS011;5824;49.336;8.652;2023-04-03T09:26:12;8.90;;;2.60;;
11535;SDS011;5824;49.336;8.652;2023-04-03T09:29:00;4.00;;;2.00;;
11535;SDS011;5824;49.336;8.652;2023-04-03T09:31:35;3.57;;;2.20;;
11535;SDS011;5824;49.336;8.652;2023-04-03T09:34:05;3.60;;;2.30;;
11535;SDS011;5824;49.336;8.652;2023-04-03T09:36:43;4.27;;;2.23;;
11535;SDS011;5824;49.336;8.652;2023-04-03T09:39:18;3.90;;;1.90;;
11535;SDS011;5824;49.336;8.652;2023-04-03T09:42:00;4.03;;;2.40;;
11535;SDS011;5824;49.336;8.652;2023-04-03T09:44:32;4.97;;;2.30;;
11535;SDS011;5824;49.336;8.652;2023-04-03T09:47:00;3.37;;;1.80;;
11535;SDS011;5824;49.336;8.652;2023-04-03T09:50:17;3.90;;;1.90;;
11535;SDS011;5824;49.336;8.652;2023-04-03T09:52:47;4.70;;;2.00;;
11535;SDS011;5824;49.336;8.652;2023-04-03T09:55:17;3.77;;;2.20;;
11535;SDS011;5824;49.336;8.652;2023-04-03T09:57:44;6.20;;;2.27;;
11535;SDS011;5824;49.336;8.652;2023-04-03T10:00:24;5.60;;;2.23;;
11535;SDS011;5824;49.336;8.652;2023-04-03T10:03:00;3.53;;;2.10;;
11535;SDS011;5824;49.336;8.652;2023-04-03T10:08:06;3.90;;;2.33;;
11535;SDS011;5824;49.336;8.652;2023-04-03T10:10:34;3.00;;;1.90;;
11535;SDS011;5824;49.336;8.652;2023-04-03T10:13:19;3.00;;;1.93;;
11535;SDS011;5824;49.336;8.652;2023-04-03T10:15:50;4.33;;;2.27;;
11535;SDS011;5824;49.336;8.652;2023-04-03T10:21:10;5.77;;;2.10;;
11535;SDS011;5824;49.336;8.652;2023-04-03T10:23:45;4.03;;;1.83;;
11535;SDS011;5824;49.336;8.652;2023-04-03T10:26:41;5.20;;;2.00;;
11535;SDS011;5824;49.336;8.652;2023-04-03T10:29:21;3.83;;;2.63;;
11535;SDS011;5824;49.336;8.652;2023-04-03T10:31:57;4.00;;;2.07;;
11535;SDS011;5824;49.336;8.652;2023-04-03T10:34:45;3.80;;;2.00;;
11535;SDS011;5824;49.336;8.652;2023-04-03T10:39:53;3.43;;;2.10;;
11535;SDS011;5824;49.336;8.652;2023-04-03T10:42:35;5.77;;;2.40;;
11535;SDS011;5824;49.336;8.652;2023-04-03T10:48:17;5.43;;;2.20;;
11535;SDS011;5824;49.336;8.652;2023-04-03T10:56:41;3.30;;;2.10;;
11535;SDS011;5824;49.336;8.652;2023-04-03T10:59:28;4.00;;;2.60;;
11535;SDS011;5824;49.336;8.652;2023-04-03T11:02:30;3.27;;;2.10;;
11535;SDS011;5824;49.336;8.652;2023-04-03T11:04:51;4.10;;;2.33;;
11535;SDS011;5824;49.336;8.652;2023-04-03T11:07:29;4.40;;;2.50;;
11535;SDS011;5824;49.336;8.652;2023-04-03T11:10:15;3.80;;;2.10;;
11535;SDS011;5824;49.336;8.652;2023-04-03T11:15:48;3.00;;;2.30;;
11535;SDS011;5824;49.336;8.652;2023-04-03T11:18:18;4.60;;;2.33;;
11535;SDS011;5824;49.336;8.652;2023-04-03T11:21:01;4.33;;;1.97;;
11535;SDS011;5824;49.336;8.652;2023-04-03T11:23:34;2.97;;;2.17;;
11535;SDS011;5824;49.336;8.652;2023-04-03T11:26:07;4.00;;;1.90;;
11535;SDS011;5824;49.336;8.652;2023-04-03T11:28:36;3.00;;;1.90;;
11535;SDS011;5824;49.336;8.652;2023-04-03T11:36:39;3.97;;;2.17;;
11535;SDS011;5824;49.336;8.652;2023-04-03T11:41:45;3.93;;;2.00;;
11535;SDS011;5824;49.336;8.652;2023-04-03T11:46:58;2.80;;;1.83;;
11535;SDS011;5824;49.336;8.652;2023-04-03T12:05:54;4.23;;;2.30;;
11535;SDS011;5824;49.336;8.652;2023-04-03T12:08:43;3.90;;;1.90;;
11535;SDS011;5824;49.336;8.652;2023-04-03T12:21:19;6.07;;;2.50;;
11535;SDS011;5824;49.336;8.652;2023-04-03T12:23:59;3.23;;;2.03;;
11535;SDS011;5824;49.336;8.652;2023-04-03T12:26:30;2.40;;;2.07;;
11535;SDS011;5824;49.336;8.652;2023-04-03T12:29:12;3.80;;;2.40;;
11535;SDS011;5824;49.336;8.652;2023-04-03T12:37:40;4.23;;;2.40;;
11535;SDS011;5824;49.336;8.652;2023-04-03T12:46:07;3.43;;;2.30;;
11535;SDS011;5824;49.336;8.652;2023-04-03T12:51:25;2.53;;;2.20;;
11535;SDS011;5824;49.336;8.652;2023-04-03T12:54:03;3.07;;;2.20;;
11535;SDS011;5824;49.336;8.652;2023-04-03T12:56:39;4.63;;;2.40;;
11535;SDS011;5824;49.336;8.652;2023-04-03T13:01:54;3.70;;;2.00;;
11535;SDS011;5824;49.336;8.652;2023-04-03T13:04:25;8.47;;;2.30;;
11535;SDS011;5824;49.336;8.652;2023-04-03T13:06:52;3.40;;;2.00;;
11535;SDS011;5824;49.336;8.652;2023-04-03T13:09:19;2.63;;;2.00;;
11535;SDS011;5824;49.336;8.652;2023-04-03T13:11:46;5.80;;;2.53;;
11535;SDS011;5824;49.336;8.652;2023-04-03T13:14:16;2.43;;;1.93;;
11535;SDS011;5824;49.336;8.652;2023-04-03T13:16:53;2.77;;;2.07;;
11535;SDS011;5824;49.336;8.652;2023-04-03T13:19:20;4.20;;;3.00;;
11535;SDS011;5824;49.336;8.652;2023-04-03T13:21:48;6.20;;;2.77;;
11535;SDS011;5824;49.336;8.652;2023-04-03T13:24:16;4.73;;;2.20;;
11535;SDS011;5824;49.336;8.652;2023-04-03T13:26:42;5.50;;;2.50;;
11535;SDS011;5824;49.336;8.652;2023-04-03T13:29:17;4.03;;;2.53;;
11535;SDS011;5824;49.336;8.652;2023-04-03T13:31:47;4.70;;;2.80;;
11535;SDS011;5824;49.336;8.652;2023-04-03T13:34:19;5.33;;;2.60;;
11535;SDS011;5824;49.336;8.652;2023-04-03T13:36:55;4.40;;;2.80;;
11535;SDS011;5824;49.336;8.652;2023-04-03T13:39:27;5.13;;;2.90;;
11535;SDS011;5824;49.336;8.652;2023-04-03T13:42:03;5.20;;;2.67;;
11535;SDS011;5824;49.336;8.652;2023-04-03T13:44:47;4.80;;;2.80;;
11535;SDS011;5824;49.336;8.652;2023-04-03T13:47:21;4.70;;;3.07;;
11535;SDS011;5824;49.336;8.652;2023-04-03T13:50:12;4.57;;;2.90;;
11535;SDS011;5824;49.336;8.652;2023-04-03T13:55:18;5.53;;;3.10;;
11535;SDS011;5824;49.336;8.652;2023-04-03T14:00:33;4.27;;;2.33;;
11535;SDS011;5824;49.336;8.652;2023-04-03T14:02:59;6.40;;;2.70;;
11535;SDS011;5824;49.336;8.652;2023-04-03T14:05:25;4.33;;;2.47;;
11535;SDS011;5824;49.336;8.652;2023-04-03T14:07:52;4.00;;;2.37;;
11535;SDS011;5824;49.336;8.652;2023-04-03T14:10:19;4.07;;;2.60;;
11535;SDS011;5824;49.336;8.652;2023-04-03T14:12:45;6.30;;;2.90;;
11535;SDS011;5824;49.336;8.652;2023-04-03T14:15:16;3.97;;;2.73;;
11535;SDS011;5824;49.336;8.652;2023-04-03T14:17:48;5.47;;;2.90;;
11535;SDS011;5824;49.336;8.652;2023-04-03T14:20:15;4.10;;;2.67;;
11535;SDS011;5824;49.336;8.652;2023-04-03T14:22:41;7.20;;;2.90;;
11535;SDS011;5824;49.336;8.652;2023-04-03T14:25:08;4.57;;;2.50;;
11535;SDS011;5824;49.336;8.652;2023-04-03T14:27:35;5.70;;;2.80;;
11535;SDS011;5824;49.336;8.652;2023-04-03T14:30:08;4.77;;;2.70;;
11535;SDS011;5824;49.336;8.652;2023-04-03T14:32:38;5.50;;;2.50;;
11535;SDS011;5824;49.336;8.652;2023-04-03T14:35:04;4.37;;;2.90;;
11535;SDS011;5824;49.336;8.652;2023-04-03T14:37:30;5.03;;;2.90;;
11535;SDS011;5824;49.336;8.652;2023-04-03T14:39:56;4.00;;;3.00;;
11535;SDS011;5824;49.336;8.652;2023-04-03T14:42:24;6.17;;;2.70;;
11535;SDS011;5824;49.336;8.652;2023-04-03T14:44:55;4.63;;;2.77;;
11535;SDS011;5824;49.336;8.652;2023-04-03T14:47:23;4.23;;;2.73;;
11535;SDS011;5824;49.336;8.652;2023-04-03T14:49:51;5.33;;;3.13;;
11535;SDS011;5824;49.336;8.652;2023-04-03T14:54:49;5.50;;;2.60;;
11535;SDS011;5824;49.336;8.652;2023-04-03T14:57:16;3.87;;;2.57;;
11535;SDS011;5824;49.336;8.652;2023-04-03T14:59:42;4.13;;;2.60;;
11535;SDS011;5824;49.336;8.652;2023-04-03T15:02:11;4.60;;;2.80;;
11535;SDS011;5824;49.336;8.652;2023-04-03T15:04:44;4.20;;;2.63;;
11535;SDS011;5824;49.336;8.652;2023-04-03T15:07:10;4.43;;;2.37;;
11535;SDS011;5824;49.336;8.652;2023-04-03T15:09:35;5.40;;;3.00;;
11535;SDS011;5824;49.336;8.652;2023-04-03T15:12:01;4.70;;;3.17;;
11535;SDS011;5824;49.336;8.652;2023-04-03T15:14:27;4.83;;;2.57;;
11535;SDS011;5824;49.336;8.652;2023-04-03T15:16:53;4.77;;;2.77;;
11535;SDS011;5824;49.336;8.652;2023-04-03T15:19:18;5.17;;;2.80;;
11535;SDS011;5824;49.336;8.652;2023-04-03T15:21:44;5.00;;;2.47;;
11535;SDS011;5824;49.336;8.652;2023-04-03T15:24:09;4.43;;;2.70;;
11535;SDS011;5824;49.336;8.652;2023-04-03T15:26:35;4.97;;;2.77;;
11535;SDS011;5824;49.336;8.652;2023-04-03T15:29:01;4.10;;;2.80;;
11535;SDS011;5824;49.336;8.652;2023-04-03T15:31:28;5.30;;;2.67;;
11535;SDS011;5824;49.336;8.652;2023-04-03T15:33:53;4.27;;;2.53;;
11535;SDS011;5824;49.336;8.652;2023-04-03T15:36:19;5.90;;;2.90;;
11535;SDS011;5824;49.336;8.652;2023-04-03T15:38:44;4.43;;;2.33;;
11535;SDS011;5824;49.336;8.652;2023-04-03T15:41:09;4.47;;;2.80;;
11535;SDS011;5824;49.336;8.652;2023-04-03T15:43:35;4.20;;;2.60;;
11535;SDS011;5824;49.336;8.652;2023-04-03T15:46:01;4.13;;;2.60;;
11535;SDS011;5824;49.336;8.652;2023-04-03T15:48:27;6.50;;;2.80;;
11535;SDS011;5824;49.336;8.652;2023-04-03T15:50:53;5.00;;;2.93;;
11535;SDS011;5824;49.336;8.652;2023-04-03T15:53:19;5.20;;;3.40;;
11535;SDS011;5824;49.336;8.652;2023-04-03T15:55:44;5.10;;;2.80;;
11535;SDS011;5824;49.336;8.652;2023-04-03T15:58:10;4.83;;;2.90;;
11535;SDS011;5824;49.336;8.652;2023-04-03T16:00:36;4.87;;;2.87;;
11535;SDS011;5824;49.336;8.652;2023-04-03T16:03:04;4.27;;;2.50;;
11535;SDS011;5824;49.336;8.652;2023-04-03T16:05:33;3.43;;;2.37;;
11535;SDS011;5824;49.336;8.652;2023-04-03T16:08:02;3.43;;;2.37;;
11535;SDS011;5824;49.336;8.652;2023-04-03T16:10:27;4.13;;;2.53;;
11535;SDS011;5824;49.336;8.652;2023-04-03T16:12:53;3.57;;;2.20;;
11535;SDS011;5824;49.336;8.652;2023-04-03T16:15:19;3.03;;;2.03;;
11535;SDS011;5824;49.336;8.652;2023-04-03T16:17:44;2.80;;;1.93;;
11535;SDS011;5824;49.336;8.652;2023-04-03T16:20:10;6.90;;;2.33;;
11535;SDS011;5824;49.336;8.652;2023-04-03T16:22:37;4.00;;;2.20;;
11535;SDS011;5824;49.336;8.652;2023-04-03T16:25:05;3.10;;;1.73;;
11535;SDS011;5824;49.336;8.652;2023-04-03T16:27:31;2.80;;;2.00;;
11535;SDS011;5824;49.336;8.652;2023-04-03T16:29:57;2.70;;;1.50;;
11535;SDS011;5824;49.336;8.652;2023-04-03T16:32:23;4.03;;;2.13;;
11535;SDS011;5824;49.336;8.652;2023-04-03T16:34:51;4.47;;;2.10;;
11535;SDS011;5824;49.336;8.652;2023-04-03T16:37:17;4.20;;;2.20;;
11535;SDS011;5824;49.336;8.652;2023-04-03T16:39:42;2.90;;;1.93;;
11535;SDS011;5824;49.336;8.652;2023-04-03T16:42:08;3.23;;;2.30;;